createdAt,value
2022-10-30T00:00:46.867Z,10.40
2022-10-30T00:03:15.285Z,10.50
2022-10-30T00:05:44.074Z,10.40
2022-10-30T00:08:12.865Z,10.40
2022-10-30T00:10:40.299Z,10.50
2022-10-30T00:13:07.903Z,10.60
2022-10-30T00:15:35.211Z,10.50
2022-10-30T00:18:02.418Z,10.60
2022-10-30T00:20:29.630Z,10.60
2022-10-30T00:22:56.883Z,10.70
2022-10-30T00:25:23.873Z,10.80
2022-10-30T00:27:50.638Z,10.90
2022-10-30T00:30:18.852Z,10.90
2022-10-30T00:32:45.695Z,11.00
2022-10-30T00:35:12.515Z,11.10
2022-10-30T00:37:39.572Z,11.10
2022-10-30T00:40:07.526Z,11.00
2022-10-30T00:42:34.307Z,11.10
2022-10-30T00:45:03.922Z,11.00
2022-10-30T00:47:32.571Z,10.90
2022-10-30T00:50:10.490Z,10.90
2022-10-30T00:53:01.974Z,10.90
2022-10-30T00:55:59.817Z,11.00
2022-10-30T00:58:32.943Z,11.20
2022-10-30T01:01:02.875Z,11.30
2022-10-30T01:03:30.540Z,11.20
2022-10-30T01:06:06.494Z,11.10
2022-10-30T01:08:34.504Z,11.00
2022-10-30T01:11:03.603Z,10.90
2022-10-30T01:13:31.842Z,10.80
2022-10-30T01:16:37.187Z,10.60
2022-10-30T01:19:20.735Z,10.50
2022-10-30T01:22:13.851Z,10.30
2022-10-30T01:24:49.718Z,10.20
2022-10-30T01:27:35.352Z,10.10
2022-10-30T01:30:20.084Z,10.00
2022-10-30T01:33:04.966Z,9.90
2022-10-30T01:36:03.927Z,9.90
2022-10-30T01:38:46.469Z,10.00
2022-10-30T01:41:16.880Z,9.80
2022-10-30T01:43:48.427Z,9.80
2022-10-30T01:46:34.356Z,9.90
2022-10-30T01:52:22.612Z,9.90
2022-10-30T01:55:09.363Z,9.90
2022-10-30T01:57:55.989Z,9.80
2022-10-30T02:00:23.192Z,9.90
2022-10-30T02:02:51.438Z,10.00
2022-10-30T02:05:47.495Z,10.00
2022-10-30T02:08:14.684Z,9.80
2022-10-30T02:10:43.954Z,9.80
2022-10-30T02:13:11.168Z,9.60
2022-10-30T02:15:38.556Z,9.40
2022-10-30T02:18:05.522Z,9.30
2022-10-30T02:20:33.525Z,9.20
2022-10-30T02:23:00.703Z,9.20
2022-10-30T02:25:33.030Z,9.00
2022-10-30T02:27:59.962Z,9.10
2022-10-30T02:30:29.496Z,9.00
2022-10-30T02:32:56.911Z,8.90
2022-10-30T02:35:24.381Z,8.90
2022-10-30T02:37:52.574Z,8.90
2022-10-30T02:40:19.387Z,8.80
2022-10-30T02:42:52.140Z,8.80
2022-10-30T02:45:19.150Z,8.70
2022-10-30T02:47:45.983Z,8.80
2022-10-30T02:50:13.251Z,8.90
2022-10-30T02:52:40.140Z,8.80
2022-10-30T02:55:09.073Z,8.70
2022-10-30T02:57:37.379Z,8.70
2022-10-30T03:00:05.092Z,8.60
2022-10-30T03:02:31.931Z,8.50
2022-10-30T03:04:59.835Z,8.50
2022-10-30T03:07:26.721Z,8.60
2022-10-30T03:09:54.462Z,8.50
2022-10-30T03:12:22.390Z,8.50
2022-10-30T03:14:49.127Z,8.70
2022-10-30T03:17:15.912Z,8.50
2022-10-30T03:19:42.639Z,8.40
2022-10-30T03:22:09.870Z,8.30
2022-10-30T03:24:38.238Z,8.30
2022-10-30T03:27:05.314Z,8.20
2022-10-30T03:29:32.100Z,8.20
2022-10-30T03:31:58.891Z,8.20
2022-10-30T03:34:30.520Z,8.20
2022-10-30T03:36:58.961Z,8.20
2022-10-30T03:39:26.092Z,8.20
2022-10-30T03:41:52.954Z,8.20
2022-10-30T03:44:19.870Z,8.10
2022-10-30T03:46:46.600Z,8.10
2022-10-30T03:49:20.583Z,8.10
2022-10-30T03:51:47.388Z,8.10
2022-10-30T03:54:14.160Z,8.20
2022-10-30T03:56:40.932Z,8.40
2022-10-30T03:59:13.018Z,8.30
2022-10-30T04:01:41.385Z,8.40
2022-10-30T04:04:08.260Z,8.50
2022-10-30T04:06:35.036Z,8.40
2022-10-30T04:09:01.935Z,8.50
2022-10-30T04:11:34.795Z,8.60
2022-10-30T04:14:01.515Z,8.60
2022-10-30T04:16:28.264Z,8.60
2022-10-30T04:18:57.458Z,8.60
2022-10-30T04:21:24.352Z,8.70
2022-10-30T04:23:51.268Z,8.60
2022-10-30T04:26:20.872Z,8.50
2022-10-30T04:28:50.809Z,8.30
2022-10-30T04:31:17.668Z,8.30
2022-10-30T04:33:44.500Z,8.30
2022-10-30T04:36:11.411Z,8.30
2022-10-30T04:38:38.239Z,8.40
2022-10-30T04:41:07.344Z,8.30
2022-10-30T04:43:51.774Z,8.20
2022-10-30T04:46:18.763Z,8.10
2022-10-30T04:48:45.831Z,8.10
2022-10-30T04:51:14.008Z,8.00
2022-10-30T04:53:40.855Z,8.00
2022-10-30T04:56:10.751Z,8.00
2022-10-30T04:58:38.352Z,7.90
2022-10-30T05:01:08.504Z,8.10
2022-10-30T05:03:36.426Z,8.20
2022-10-30T05:06:17.259Z,8.30
2022-10-30T05:08:44.186Z,8.00
2022-10-30T05:11:23.362Z,8.20
2022-10-30T05:13:50.169Z,8.10
2022-10-30T05:16:17.553Z,8.00
2022-10-30T05:18:44.469Z,7.90
2022-10-30T05:21:11.754Z,7.80
2022-10-30T05:23:39.152Z,8.10
2022-10-30T05:26:06.986Z,8.20
2022-10-30T05:28:34.642Z,8.00
2022-10-30T05:31:01.503Z,8.10
2022-10-30T05:33:48.527Z,8.00
2022-10-30T05:36:15.841Z,8.10
2022-10-30T05:38:43.366Z,7.90
2022-10-30T05:41:17.889Z,7.80
2022-10-30T05:43:44.853Z,7.80
2022-10-30T05:46:13.150Z,7.90
2022-10-30T05:48:40.100Z,7.80
2022-10-30T05:51:08.514Z,7.90
2022-10-30T05:53:38.335Z,7.90
2022-10-30T05:56:06.152Z,7.90
2022-10-30T05:58:35.008Z,7.90
2022-10-30T06:01:07.690Z,7.90
2022-10-30T06:03:41.509Z,7.90
2022-10-30T06:06:08.334Z,7.90
2022-10-30T06:08:35.533Z,7.90
2022-10-30T06:11:12.377Z,8.10
2022-10-30T06:13:41.320Z,8.20
2022-10-30T06:16:12.460Z,8.10
2022-10-30T06:18:59.326Z,8.10
2022-10-30T06:21:28.556Z,8.40
2022-10-30T06:24:12.524Z,8.40
2022-10-30T06:26:44.236Z,8.50
2022-10-30T06:29:13.757Z,8.60
2022-10-30T06:31:41.168Z,8.70
2022-10-30T06:34:07.930Z,8.80
2022-10-30T06:36:37.256Z,8.90
2022-10-30T06:39:04.946Z,9.00
2022-10-30T06:41:39.968Z,9.10
2022-10-30T06:44:37.987Z,9.20
2022-10-30T06:47:04.779Z,9.40
2022-10-30T06:49:31.649Z,9.60
2022-10-30T06:51:59.061Z,9.80
2022-10-30T06:54:25.918Z,10.10
2022-10-30T06:56:55.486Z,10.00
2022-10-30T06:59:37.432Z,10.20
2022-10-30T07:02:42.331Z,10.20
2022-10-30T07:05:13.678Z,10.50
2022-10-30T07:07:40.691Z,10.70
2022-10-30T07:10:08.680Z,10.90
2022-10-30T07:12:55.594Z,10.90
2022-10-30T07:18:19.487Z,11.20
2022-10-30T07:20:46.758Z,11.30
2022-10-30T07:23:13.510Z,11.40
2022-10-30T07:25:40.273Z,11.50
2022-10-30T07:28:19.582Z,11.60
2022-10-30T07:31:09.657Z,11.70
2022-10-30T07:33:56.312Z,11.90
2022-10-30T07:36:48.768Z,11.90
2022-10-30T07:39:28.414Z,12.00
2022-10-30T07:42:10.193Z,12.20
2022-10-30T07:44:59.923Z,12.40
2022-10-30T07:47:42.954Z,12.50
2022-10-30T07:50:20.105Z,12.60
2022-10-30T07:52:47.041Z,12.70
2022-10-30T07:55:17.058Z,12.80
2022-10-30T07:57:43.879Z,13.00
2022-10-30T08:00:30.917Z,13.20
2022-10-30T08:03:10.789Z,13.50
2022-10-30T08:05:46.114Z,13.60
2022-10-30T08:08:19.673Z,13.80
2022-10-30T08:10:47.174Z,14.00
2022-10-30T08:13:14.950Z,14.10
2022-10-30T08:15:44.822Z,14.20
2022-10-30T08:18:11.855Z,14.30
2022-10-30T08:20:42.782Z,14.30
2022-10-30T08:23:10.769Z,14.40
2022-10-30T08:25:37.593Z,14.50
2022-10-30T08:28:08.421Z,14.80
2022-10-30T08:30:38.014Z,14.90
2022-10-30T08:33:10.219Z,15.10
2022-10-30T08:35:53.214Z,15.10
2022-10-30T08:38:20.856Z,15.20
2022-10-30T08:40:57.365Z,15.20
2022-10-30T08:43:25.323Z,15.20
2022-10-30T08:45:52.531Z,15.30
2022-10-30T08:48:21.535Z,15.50
2022-10-30T08:50:48.564Z,15.70
2022-10-30T08:53:21.529Z,15.80
2022-10-30T08:55:51.897Z,16.00
2022-10-30T08:58:26.393Z,16.00
2022-10-30T09:00:57.281Z,16.10
2022-10-30T09:03:48.614Z,16.30
2022-10-30T09:06:56.284Z,16.50
2022-10-30T09:09:46.572Z,16.40
2022-10-30T09:12:45.052Z,16.60
2022-10-30T09:15:12.717Z,16.70
2022-10-30T09:18:11.607Z,17.10
2022-10-30T09:20:41.596Z,17.40
2022-10-30T09:23:08.885Z,17.50
2022-10-30T09:25:35.862Z,17.60
2022-10-30T09:28:12.825Z,17.70
2022-10-30T09:31:38.632Z,18.00
2022-10-30T09:34:08.782Z,18.10
2022-10-30T09:36:47.554Z,18.00
2022-10-30T09:39:14.661Z,18.30
2022-10-30T09:42:27.766Z,18.10
2022-10-30T09:45:46.352Z,18.30
2022-10-30T09:48:56.268Z,18.60
2022-10-30T09:52:08.613Z,18.60
2022-10-30T09:55:01.360Z,19.30
2022-10-30T09:58:02.110Z,20.70
2022-10-30T10:00:44.901Z,22.40
2022-10-30T10:03:37.259Z,23.00
2022-10-30T10:06:24.768Z,23.60
2022-10-30T10:09:19.150Z,24.10
2022-10-30T10:12:28.410Z,23.90
2022-10-30T10:14:57.494Z,22.00
2022-10-30T10:17:31.783Z,21.40
2022-10-30T10:20:00.444Z,21.10
2022-10-30T10:22:40.972Z,21.00
2022-10-30T10:25:13.359Z,20.90
2022-10-30T10:28:01.775Z,20.80
2022-10-30T10:30:55.577Z,20.90
2022-10-30T10:34:08.932Z,21.00
2022-10-30T10:36:47.838Z,21.00
2022-10-30T10:39:45.451Z,20.90
2022-10-30T10:42:24.422Z,21.00
2022-10-30T10:45:32.493Z,21.10
2022-10-30T10:48:33.338Z,21.10
2022-10-30T10:51:10.773Z,21.30
2022-10-30T10:54:06.869Z,21.30
2022-10-30T10:56:37.476Z,21.40
2022-10-30T10:59:25.609Z,21.50
2022-10-30T11:02:00.365Z,21.40
2022-10-30T11:04:42.141Z,21.70
2022-10-30T11:07:45.794Z,21.80
2022-10-30T11:10:15.149Z,21.60
2022-10-30T11:12:42.536Z,21.60
2022-10-30T11:15:20.693Z,21.50
2022-10-30T11:21:19.985Z,21.60
2022-10-30T11:23:49.087Z,21.30
2022-10-30T11:26:18.763Z,21.20
2022-10-30T11:29:05.895Z,21.20
2022-10-30T11:31:40.425Z,21.30
2022-10-30T11:34:19.461Z,21.30
2022-10-30T11:36:53.929Z,21.00
2022-10-30T11:39:26.151Z,20.90
2022-10-30T11:42:19.397Z,21.00
2022-10-30T11:44:49.500Z,21.00
2022-10-30T11:47:21.597Z,21.00
2022-10-30T11:50:00.837Z,21.00
2022-10-30T11:52:28.395Z,21.30
2022-10-30T11:55:02.844Z,21.30
2022-10-30T11:57:44.876Z,21.40
2022-10-30T12:00:34.307Z,21.50
2022-10-30T12:03:02.038Z,21.50
2022-10-30T12:05:38.057Z,21.50
2022-10-30T12:08:08.352Z,21.50
2022-10-30T12:10:51.221Z,21.50
2022-10-30T12:13:22.241Z,21.40
2022-10-30T12:15:51.757Z,21.30
2022-10-30T12:18:25.511Z,21.30
2022-10-30T12:20:55.465Z,21.30
2022-10-30T12:23:25.854Z,21.30
2022-10-30T12:26:04.588Z,21.30
2022-10-30T12:28:34.679Z,21.30
2022-10-30T12:31:14.984Z,21.40
2022-10-30T12:33:50.334Z,21.30
2022-10-30T12:36:24.846Z,21.20
2022-10-30T12:39:00.123Z,21.10
2022-10-30T12:41:45.377Z,21.00
2022-10-30T12:44:22.177Z,21.00
2022-10-30T12:46:56.009Z,21.00
2022-10-30T12:49:51.013Z,20.90
2022-10-30T12:52:43.407Z,20.80
2022-10-30T12:55:35.339Z,20.60
2022-10-30T12:58:33.314Z,20.60
2022-10-30T13:01:32.480Z,20.70
2022-10-30T13:04:27.009Z,20.50
2022-10-30T13:07:08.772Z,20.70
2022-10-30T13:10:03.470Z,20.80
2022-10-30T13:12:37.936Z,20.60
2022-10-30T13:15:09.640Z,20.50
2022-10-30T13:17:36.539Z,20.60
2022-10-30T13:20:13.496Z,20.70
2022-10-30T13:22:45.226Z,20.80
2022-10-30T13:25:15.854Z,20.90
2022-10-30T13:28:08.086Z,21.00
2022-10-30T13:30:40.303Z,20.70
2022-10-30T13:33:28.325Z,20.40
2022-10-30T13:36:18.696Z,20.70
2022-10-30T13:39:19.214Z,20.50
2022-10-30T13:41:52.107Z,20.30
2022-10-30T13:44:18.988Z,20.40
2022-10-30T13:47:00.780Z,20.60
2022-10-30T13:49:46.994Z,20.30
2022-10-30T13:52:18.410Z,20.20
2022-10-30T13:55:04.502Z,20.40
2022-10-30T13:57:56.140Z,20.30
2022-10-30T14:00:29.245Z,20.20
2022-10-30T14:03:21.096Z,20.20
2022-10-30T14:06:07.691Z,20.30
2022-10-30T14:08:43.813Z,20.40
2022-10-30T14:11:13.999Z,20.70
2022-10-30T14:13:56.867Z,20.60
2022-10-30T14:16:45.875Z,20.60
2022-10-30T14:19:17.143Z,20.50
2022-10-30T14:21:59.910Z,20.50
2022-10-30T14:24:33.045Z,20.30
2022-10-30T14:27:05.890Z,20.00
2022-10-30T14:29:35.853Z,19.90
2022-10-30T14:32:14.841Z,19.90
2022-10-30T14:34:50.919Z,19.80
2022-10-30T14:37:38.181Z,19.80
2022-10-30T14:43:02.331Z,19.90
2022-10-30T14:45:46.513Z,20.00
2022-10-30T14:48:47.249Z,19.70
2022-10-30T14:51:35.890Z,19.30
2022-10-30T14:54:27.327Z,19.10
2022-10-30T14:56:54.273Z,18.90
2022-10-30T14:59:24.360Z,18.60
2022-10-30T15:02:24.398Z,18.40
2022-10-30T15:05:09.680Z,18.30
2022-10-30T15:07:56.187Z,18.10
2022-10-30T15:10:31.157Z,18.00
2022-10-30T15:12:59.796Z,17.90
2022-10-30T15:15:29.845Z,17.80
2022-10-30T15:18:01.270Z,17.70
2022-10-30T15:20:35.183Z,17.60
2022-10-30T15:23:10.093Z,17.50
2022-10-30T15:25:52.429Z,17.40
2022-10-30T15:28:22.675Z,17.50
2022-10-30T15:31:25.918Z,17.30
2022-10-30T15:33:54.336Z,17.20
2022-10-30T15:36:34.399Z,17.10
2022-10-30T15:39:15.871Z,17.00
2022-10-30T15:41:50.512Z,16.90
2022-10-30T15:44:21.754Z,16.90
2022-10-30T15:46:52.466Z,16.70
2022-10-30T15:49:51.632Z,16.60
2022-10-30T15:52:20.599Z,16.60
2022-10-30T15:54:58.954Z,16.50
2022-10-30T15:58:04.577Z,16.40
2022-10-30T16:00:35.251Z,16.30
2022-10-30T16:03:06.293Z,16.30
2022-10-30T16:05:34.136Z,16.20
2022-10-30T16:08:02.703Z,16.10
2022-10-30T16:10:34.683Z,16.00
2022-10-30T16:13:03.501Z,15.90
2022-10-30T16:15:38.340Z,15.90
2022-10-30T16:18:22.078Z,15.70
2022-10-30T16:20:55.800Z,15.70
2022-10-30T16:23:23.139Z,15.50
2022-10-30T16:25:55.671Z,15.40
2022-10-30T16:28:32.211Z,15.20
2022-10-30T16:31:05.340Z,15.10
2022-10-30T16:33:35.206Z,15.10
2022-10-30T16:36:03.995Z,14.90
2022-10-30T16:38:37.345Z,14.90
2022-10-30T16:41:06.450Z,14.80
2022-10-30T16:43:35.092Z,14.80
2022-10-30T16:46:14.132Z,14.70
2022-10-30T16:49:03.555Z,14.60
2022-10-30T16:51:30.674Z,14.50
2022-10-30T16:53:59.604Z,14.40
2022-10-30T16:56:28.780Z,14.30
2022-10-30T16:59:31.644Z,14.30
2022-10-30T17:02:05.811Z,14.30
2022-10-30T17:04:35.894Z,14.10
2022-10-30T17:07:17.165Z,14.20
2022-10-30T17:09:52.222Z,14.10
2022-10-30T17:12:30.348Z,14.00
2022-10-30T17:15:24.804Z,13.90
2022-10-30T17:18:13.437Z,13.70
2022-10-30T17:20:40.245Z,13.70
2022-10-30T17:23:18.452Z,13.70
2022-10-30T17:25:46.099Z,13.60
2022-10-30T17:28:34.239Z,13.60
2022-10-30T17:31:36.149Z,13.40
2022-10-30T17:34:02.870Z,13.40
2022-10-30T17:36:29.724Z,13.30
2022-10-30T17:38:56.446Z,13.30
2022-10-30T17:41:23.329Z,13.30
2022-10-30T17:43:56.818Z,13.20
2022-10-30T17:46:24.576Z,13.20
2022-10-30T17:48:51.337Z,13.10
2022-10-30T17:51:19.519Z,13.00
2022-10-30T17:53:49.720Z,12.90
2022-10-30T17:56:19.637Z,12.80
2022-10-30T17:58:49.540Z,12.70
2022-10-30T18:01:27.738Z,12.60
2022-10-30T18:03:57.309Z,12.70
2022-10-30T18:06:27.034Z,12.70
2022-10-30T18:08:54.808Z,12.70
2022-10-30T18:11:28.758Z,12.60
2022-10-30T18:13:56.951Z,12.60
2022-10-30T18:16:24.203Z,12.50
2022-10-30T18:18:52.025Z,12.60
2022-10-30T18:21:23.843Z,12.40
2022-10-30T18:23:57.270Z,12.30
2022-10-30T18:26:30.774Z,12.20
2022-10-30T18:28:57.529Z,12.10
2022-10-30T18:31:24.789Z,12.10
2022-10-30T18:33:51.617Z,12.00
2022-10-30T18:36:22.268Z,12.10
2022-10-30T18:38:52.520Z,12.00
2022-10-30T18:41:33.875Z,12.00
2022-10-30T18:44:01.053Z,11.90
2022-10-30T18:46:36.579Z,11.90
2022-10-30T18:49:06.116Z,11.80
2022-10-30T18:51:32.941Z,11.70
2022-10-30T18:54:00.016Z,11.70
2022-10-30T18:56:30.899Z,11.70
2022-10-30T18:59:01.882Z,11.80
2022-10-30T19:01:32.145Z,11.90
2022-10-30T19:04:03.921Z,11.70
2022-10-30T19:06:30.929Z,11.60
2022-10-30T19:08:57.655Z,11.60
2022-10-30T19:11:25.817Z,11.50
2022-10-30T19:13:54.397Z,11.40
2022-10-30T19:16:24.538Z,11.50
2022-10-30T19:18:51.403Z,11.60
2022-10-30T19:21:24.651Z,11.60
2022-10-30T19:23:51.734Z,11.80
2022-10-30T19:26:18.606Z,11.60
2022-10-30T19:28:46.224Z,11.30
2022-10-30T19:31:18.352Z,11.20
2022-10-30T19:33:46.122Z,11.20
2022-10-30T19:36:34.142Z,11.20
2022-10-30T19:39:07.594Z,11.40
2022-10-30T19:41:36.588Z,11.50
2022-10-30T19:44:03.462Z,11.20
2022-10-30T19:46:30.189Z,11.20
2022-10-30T19:48:58.434Z,11.10
2022-10-30T19:51:27.508Z,11.00
2022-10-30T19:53:54.378Z,10.90
2022-10-30T19:56:21.602Z,10.80
2022-10-30T19:58:48.557Z,10.80
2022-10-30T20:01:15.758Z,10.90
2022-10-30T20:03:42.826Z,10.80
2022-10-30T20:06:12.317Z,10.80
2022-10-30T20:08:39.624Z,10.90
2022-10-30T20:11:06.694Z,11.10
2022-10-30T20:13:34.074Z,11.10
2022-10-30T20:16:03.358Z,10.80
2022-10-30T20:18:32.603Z,10.70
2022-10-30T20:21:01.655Z,10.70
2022-10-30T20:23:28.616Z,10.60
2022-10-30T20:26:00.552Z,10.70
2022-10-30T20:28:39.928Z,10.80
2022-10-30T20:31:08.387Z,11.00
2022-10-30T20:33:35.480Z,10.90
2022-10-30T20:36:02.506Z,10.60
2022-10-30T20:38:32.957Z,10.50
2022-10-30T20:41:02.018Z,10.50
2022-10-30T20:43:31.742Z,10.40
2022-10-30T20:45:59.872Z,10.40
2022-10-30T20:48:27.580Z,10.30
2022-10-30T20:50:56.089Z,10.30
2022-10-30T20:53:23.032Z,10.50
2022-10-30T20:55:49.786Z,10.40
2022-10-30T20:58:16.577Z,10.30
2022-10-30T21:00:43.856Z,10.30
2022-10-30T21:03:14.359Z,10.20
2022-10-30T21:05:44.185Z,10.20
2022-10-30T21:08:13.554Z,10.20
2022-10-30T21:10:40.849Z,10.20
2022-10-30T21:13:09.756Z,10.20
2022-10-30T21:15:44.677Z,10.20
2022-10-30T21:18:15.199Z,10.10
2022-10-30T21:20:41.957Z,10.20
2022-10-30T21:23:08.990Z,10.30
2022-10-30T21:25:35.974Z,10.10
2022-10-30T21:28:02.904Z,10.10
2022-10-30T21:30:29.824Z,10.00
2022-10-30T21:32:57.895Z,9.90
2022-10-30T21:35:25.117Z,9.90
2022-10-30T21:37:51.820Z,9.90
2022-10-30T21:40:20.557Z,9.90
2022-10-30T21:42:48.156Z,10.00
2022-10-30T21:45:15.060Z,9.90
2022-10-30T21:47:41.756Z,9.80
2022-10-30T21:50:12.178Z,9.70
2022-10-30T21:52:40.435Z,9.80
2022-10-30T21:55:07.667Z,9.70
2022-10-30T21:57:34.608Z,9.70
2022-10-30T22:00:05.506Z,9.60
2022-10-30T22:02:34.124Z,9.60
2022-10-30T22:05:00.935Z,9.60
2022-10-30T22:07:27.859Z,9.60
2022-10-30T22:09:54.611Z,9.60
2022-10-30T22:12:21.512Z,9.80
2022-10-30T22:14:48.234Z,9.60
2022-10-30T22:17:14.956Z,9.50
2022-10-30T22:19:41.749Z,9.50
2022-10-30T22:22:09.150Z,9.40
2022-10-30T22:24:35.938Z,9.40
2022-10-30T22:27:02.834Z,9.30
2022-10-30T22:29:29.842Z,9.50
2022-10-30T22:31:56.607Z,9.60
2022-10-30T22:34:23.384Z,9.70
2022-10-30T22:36:50.291Z,9.70
2022-10-30T22:39:17.051Z,9.80
2022-10-30T22:41:43.896Z,9.50
2022-10-30T22:44:17.278Z,9.40
2022-10-30T22:46:44.052Z,9.30
2022-10-30T22:49:11.597Z,9.30
2022-10-30T22:51:39.435Z,9.20
2022-10-30T22:54:09.544Z,9.20
2022-10-30T22:56:39.080Z,9.20
2022-10-30T22:59:08.492Z,9.20
2022-10-30T23:01:37.744Z,9.30
2022-10-30T23:04:05.808Z,9.30
2022-10-30T23:06:34.155Z,9.30
2022-10-30T23:09:04.408Z,9.20
2022-10-30T23:11:31.276Z,9.20
2022-10-30T23:13:58.060Z,9.20
2022-10-30T23:16:26.571Z,9.20
2022-10-30T23:18:58.968Z,9.10
2022-10-30T23:21:28.551Z,9.20
2022-10-30T23:24:02.090Z,9.40
2022-10-30T23:26:31.579Z,9.50
2022-10-30T23:28:59.341Z,9.60
2022-10-30T23:31:34.835Z,9.40
2022-10-30T23:34:03.899Z,9.20
2022-10-30T23:36:30.933Z,9.10
2022-10-30T23:39:00.478Z,9.10
2022-10-30T23:41:29.378Z,9.00
2022-10-30T23:44:01.498Z,9.00
2022-10-30T23:46:28.906Z,9.00
2022-10-30T23:48:56.074Z,9.00
2022-10-30T23:51:23.022Z,9.00
2022-10-30T23:53:50.090Z,8.90
2022-10-30T23:56:17.866Z,8.80
2022-10-30T23:58:46.124Z,8.80
